Strona główna
METAR-TAF:

METAR-TAF

Lotnisko :

Port lotniczy Nawakszut

Nawakszut, Mauretania

Szerokość geograficzna: 18-18-36N, Długość geograficzna: 015-58-11W, wysokość: 3 m

Aktualna obserwacja pogody

Raport powstał 39 minut temu, godzina 11:30 UTC
Wiatr 13 kt od północny zachód
Temperatura 28°C
Wilgotność 66%
Ciśnienie 1014 hPa
Widzialność 10 km lub więcej
Brak chmur poniżej 1500 m i brak chmur cumulonimbus

METAR: GQNO 161130Z 32013KT CAVOK 28/21 Q1014 NOSIG

czas: 12:09 (12:09 UTC)

Prognoza

Raport powstał 1 godzina i 9 minut temu, godzina 11:00 UTC
Prognoza ważna od 16 godzina 12 UTC do 17 godzina 18 UTC
Wiatr 12 kt od północny zachód
Widzialność: 7000 m
Prawdopodobieństwo 40% :
Przejściowo
od 16 godzina 21 UTC do 17 godzina 10 UTC
Przerywane chmury na wysokości 800 ft

TAF: GQNO 161100Z 1612/1718 32012KT 7000 NSC PROB40 TEMPO 1621/1710 BKN008

Obserwacja i prognoza pogody dla ponad 4000 lotnisk (raport METAR i TAF).

Dostępne stacje oznaczono żółtymi i czerwonymi punktami na mapie.

Najedź kursorem aby zobaczyć nazwę stacji.

Kliknij aby zobaczyć obserwacje i prognozy pogody.

Aby zmienić mapę: kliknij na zielony przycisk z czarnym krzyżykiem, aby powiększyć; na zielony przycisk z myślnikiem, aby pomniejszyć; na zielone strzałki, aby przejść do map sąsiednich.


METAR-TAF: